createdAt,value
2023-12-05T00:01:17.860Z,99234.60
2023-12-05T00:02:49.672Z,99229.40
2023-12-05T00:04:21.795Z,99227.00
2023-12-05T00:05:53.657Z,99225.20
2023-12-05T00:07:26.765Z,99227.00
2023-12-05T00:08:58.762Z,99227.60
2023-12-05T00:10:31.228Z,99223.00
2023-12-05T00:12:03.077Z,99217.40
2023-12-05T00:13:35.794Z,99214.20
2023-12-05T00:15:08.232Z,99215.20
2023-12-05T00:16:39.980Z,99216.00
2023-12-05T00:18:12.025Z,99210.80
2023-12-05T00:19:43.905Z,99209.80
2023-12-05T00:21:15.795Z,99205.40
2023-12-05T00:22:47.598Z,99202.80
2023-12-05T00:24:19.559Z,99205.40
2023-12-05T00:25:51.496Z,99206.40
2023-12-05T00:27:23.316Z,99202.60
2023-12-05T00:28:55.740Z,99207.20
2023-12-05T00:30:27.616Z,99201.80
2023-12-05T00:31:59.431Z,99205.80
2023-12-05T00:33:31.512Z,99208.20
2023-12-05T00:35:04.399Z,99209.40
2023-12-05T00:36:36.304Z,99207.20
2023-12-05T00:38:08.172Z,99205.20
2023-12-05T00:39:40.257Z,99209.20
2023-12-05T00:41:12.136Z,99205.60
2023-12-05T00:42:44.248Z,99203.40
2023-12-05T00:44:16.105Z,99207.00
2023-12-05T00:45:47.919Z,99203.60
2023-12-05T00:47:19.689Z,99196.40
2023-12-05T00:48:51.915Z,99198.60
2023-12-05T00:50:30.699Z,99195.80
2023-12-05T00:52:06.713Z,99197.40
2023-12-05T00:53:38.515Z,99196.40
2023-12-05T00:55:10.511Z,99199.80
2023-12-05T00:56:42.228Z,99197.00
2023-12-05T00:58:14.025Z,99197.60
2023-12-05T00:59:46.022Z,99198.00
2023-12-05T01:01:20.935Z,99195.60
2023-12-05T01:02:52.709Z,99198.00
2023-12-05T01:04:24.801Z,99196.20
2023-12-05T01:05:56.818Z,99186.80
2023-12-05T01:07:28.653Z,99191.20
2023-12-05T01:09:00.441Z,99191.20
2023-12-05T01:10:32.392Z,99190.60
2023-12-05T01:12:04.898Z,99190.00
2023-12-05T01:13:36.672Z,99191.40
2023-12-05T01:15:09.610Z,99189.80
2023-12-05T01:16:45.011Z,99194.00
2023-12-05T01:18:17.087Z,99197.00
2023-12-05T01:19:49.545Z,99194.60
2023-12-05T01:21:21.303Z,99191.60
2023-12-05T01:22:53.088Z,99189.40
2023-12-05T01:24:24.911Z,99189.00
2023-12-05T01:25:56.714Z,99197.40
2023-12-05T01:27:29.138Z,99191.20
2023-12-05T01:29:03.767Z,99195.80
2023-12-05T01:30:35.605Z,99195.40
2023-12-05T01:32:07.449Z,99189.40
2023-12-05T01:33:39.267Z,99188.40
2023-12-05T01:35:11.173Z,99189.40
2023-12-05T01:36:44.200Z,99181.40
2023-12-05T01:38:16.038Z,99180.40
2023-12-05T01:39:47.908Z,99183.60
2023-12-05T01:41:19.932Z,99182.80
2023-12-05T01:42:51.741Z,99180.40
2023-12-05T01:44:23.526Z,99180.00
2023-12-05T01:45:56.789Z,99172.80
2023-12-05T01:47:29.166Z,99175.60
2023-12-05T01:49:08.240Z,99176.40
2023-12-05T01:50:47.261Z,99173.20
2023-12-05T01:52:19.089Z,99173.00
2023-12-05T01:53:52.896Z,99177.60
2023-12-05T01:55:27.430Z,99179.00
2023-12-05T01:57:00.893Z,99175.40
2023-12-05T01:58:35.693Z,99178.40
2023-12-05T02:00:08.937Z,99176.20
2023-12-05T02:01:44.720Z,99175.60
2023-12-05T02:03:16.898Z,99173.80
2023-12-05T02:04:49.670Z,99175.40
2023-12-05T02:06:22.868Z,99174.80
2023-12-05T02:07:56.049Z,99168.40
2023-12-05T02:09:28.002Z,99174.20
2023-12-05T02:10:59.920Z,99164.80
2023-12-05T02:12:32.191Z,99164.20
2023-12-05T02:14:06.267Z,99164.00
2023-12-05T02:15:38.644Z,99167.00
2023-12-05T02:17:48.107Z,99156.80
2023-12-05T02:19:43.993Z,99154.00
2023-12-05T02:21:26.381Z,99155.80
2023-12-05T02:23:14.370Z,99153.00
2023-12-05T02:25:16.849Z,99153.80
2023-12-05T02:27:00.212Z,99145.60
2023-12-05T02:28:32.465Z,99145.20
2023-12-05T02:30:05.025Z,99144.00
2023-12-05T02:31:36.852Z,99141.80
2023-12-05T02:33:08.776Z,99139.80
2023-12-05T02:34:40.688Z,99141.00
2023-12-05T02:36:27.797Z,99137.40
2023-12-05T02:38:25.618Z,99135.20
2023-12-05T02:40:11.391Z,99131.00
2023-12-05T02:41:47.073Z,99134.80
2023-12-05T02:43:32.440Z,99132.40
2023-12-05T02:45:12.268Z,99132.40
2023-12-05T02:46:46.092Z,99133.60
2023-12-05T02:48:19.165Z,99133.20
2023-12-05T02:49:52.309Z,99134.40
2023-12-05T02:51:26.562Z,99131.80
2023-12-05T02:52:59.235Z,99132.80
2023-12-05T02:54:31.039Z,99136.00
2023-12-05T02:56:03.388Z,99132.20
2023-12-05T02:57:35.235Z,99131.00
2023-12-05T02:59:07.123Z,99132.60
2023-12-05T03:00:39.043Z,99130.40
2023-12-05T03:02:10.936Z,99132.80
2023-12-05T03:03:47.568Z,99132.00
2023-12-05T03:05:20.033Z,99134.80
2023-12-05T03:06:51.862Z,99132.80
2023-12-05T03:08:23.680Z,99136.20
2023-12-05T03:09:55.483Z,99138.00
2023-12-05T03:11:27.240Z,99136.00
2023-12-05T03:12:59.027Z,99139.20
2023-12-05T03:14:30.778Z,99136.60
2023-12-05T03:16:02.524Z,99139.40
2023-12-05T03:17:34.423Z,99137.40
2023-12-05T03:19:06.583Z,99138.40
2023-12-05T03:20:38.947Z,99138.60
2023-12-05T03:22:10.725Z,99137.00
2023-12-05T03:23:42.644Z,99136.80
2023-12-05T03:25:14.416Z,99136.80
2023-12-05T03:26:46.181Z,99138.00
2023-12-05T03:28:17.938Z,99135.40
2023-12-05T03:29:49.670Z,99136.20
2023-12-05T03:31:21.431Z,99136.00
2023-12-05T03:32:53.216Z,99132.20
2023-12-05T03:34:25.087Z,99136.00
2023-12-05T03:35:56.789Z,99136.60
2023-12-05T03:37:29.171Z,99135.00
2023-12-05T03:39:01.147Z,99131.80
2023-12-05T03:40:32.949Z,99131.00
2023-12-05T03:42:07.211Z,99129.00
2023-12-05T03:43:39.014Z,99128.20
2023-12-05T03:45:10.891Z,99131.80
2023-12-05T03:46:42.757Z,99133.80
2023-12-05T03:48:14.641Z,99132.00
2023-12-05T03:49:46.514Z,99126.60
2023-12-05T03:51:18.483Z,99125.40
2023-12-05T03:52:50.271Z,99126.60
2023-12-05T03:54:22.306Z,99124.40
2023-12-05T03:55:54.056Z,99123.20
2023-12-05T03:57:27.299Z,99120.20
2023-12-05T03:58:59.135Z,99121.80
2023-12-05T04:00:31.900Z,99120.20
2023-12-05T04:02:03.961Z,99123.00
2023-12-05T04:03:38.977Z,99123.20
2023-12-05T04:05:11.150Z,99120.40
2023-12-05T04:06:43.225Z,99119.20
2023-12-05T04:08:15.009Z,99117.80
2023-12-05T04:09:47.987Z,99121.80
2023-12-05T04:11:34.385Z,99116.00
2023-12-05T04:13:06.282Z,99116.80
2023-12-05T04:14:40.378Z,99120.40
2023-12-05T04:16:12.360Z,99119.00
2023-12-05T04:17:44.158Z,99120.20
2023-12-05T04:19:16.257Z,99117.40
2023-12-05T04:20:48.132Z,99121.00
2023-12-05T04:22:19.875Z,99119.00
2023-12-05T04:23:51.777Z,99117.60
2023-12-05T04:25:24.025Z,99118.40
2023-12-05T04:26:55.912Z,99116.40
2023-12-05T04:28:29.682Z,99119.60
2023-12-05T04:30:01.548Z,99115.60
2023-12-05T04:31:33.356Z,99114.20
2023-12-05T04:33:05.195Z,99113.00
2023-12-05T04:34:37.237Z,99112.60
2023-12-05T04:36:10.878Z,99114.00
2023-12-05T04:37:42.586Z,99113.80
2023-12-05T04:39:14.396Z,99115.80
2023-12-05T04:40:46.163Z,99110.60
2023-12-05T04:42:18.189Z,99112.40
2023-12-05T04:43:50.027Z,99109.20
2023-12-05T04:45:25.361Z,99100.80
2023-12-05T04:46:58.598Z,99104.40
2023-12-05T04:48:30.389Z,99102.20
2023-12-05T04:50:02.588Z,99104.60
2023-12-05T04:51:35.450Z,99102.20
2023-12-05T04:53:07.510Z,99106.80
2023-12-05T04:54:39.370Z,99100.80
2023-12-05T04:56:11.619Z,99102.60
2023-12-05T04:57:43.474Z,99100.00
2023-12-05T04:59:15.273Z,99100.60
2023-12-05T05:00:47.304Z,99103.20
2023-12-05T05:02:19.156Z,99109.20
2023-12-05T05:03:51.133Z,99108.60
2023-12-05T05:05:23.196Z,99108.20
2023-12-05T05:06:55.109Z,99103.00
2023-12-05T05:08:26.913Z,99113.00
2023-12-05T05:09:58.743Z,99112.40
2023-12-05T05:11:30.461Z,99108.60
2023-12-05T05:13:02.197Z,99108.20
2023-12-05T05:14:33.992Z,99110.60
2023-12-05T05:16:08.525Z,99112.20
2023-12-05T05:17:40.286Z,99115.20
2023-12-05T05:19:12.150Z,99111.40
2023-12-05T05:20:44.067Z,99112.40
2023-12-05T05:22:16.578Z,99119.00
2023-12-05T05:23:48.468Z,99117.40
2023-12-05T05:25:20.494Z,99115.60
2023-12-05T05:26:52.664Z,99111.80
2023-12-05T05:28:24.419Z,99114.80
2023-12-05T05:29:56.291Z,99114.20
2023-12-05T05:31:28.064Z,99115.80
2023-12-05T05:33:00.508Z,99115.00
2023-12-05T05:34:34.059Z,99113.20
2023-12-05T05:36:07.010Z,99115.20
2023-12-05T05:37:38.872Z,99115.40
2023-12-05T05:39:10.748Z,99116.00
2023-12-05T05:40:43.778Z,99116.40
2023-12-05T05:42:15.597Z,99115.00
2023-12-05T05:43:47.458Z,99113.80
2023-12-05T05:45:19.282Z,99115.40
2023-12-05T05:46:51.084Z,99117.20
2023-12-05T05:48:22.905Z,99111.60
2023-12-05T05:49:54.704Z,99113.60
2023-12-05T05:51:26.654Z,99117.00
2023-12-05T05:52:58.467Z,99114.60
2023-12-05T05:54:30.447Z,99118.60
2023-12-05T05:56:02.677Z,99115.80
2023-12-05T05:57:37.143Z,99122.60
2023-12-05T05:59:09.167Z,99119.40
2023-12-05T06:00:41.057Z,99116.20
2023-12-05T06:02:13.807Z,99119.80
2023-12-05T06:03:45.836Z,99120.00
2023-12-05T06:05:17.919Z,99125.20
2023-12-05T06:06:50.470Z,99119.00
2023-12-05T06:08:22.260Z,99118.20
2023-12-05T06:09:54.301Z,99114.60
2023-12-05T06:11:26.150Z,99116.20
2023-12-05T06:12:57.904Z,99113.60
2023-12-05T06:14:29.761Z,99114.80
2023-12-05T06:16:02.513Z,99117.00
2023-12-05T06:17:34.501Z,99117.80
2023-12-05T06:19:06.688Z,99122.80
2023-12-05T06:20:38.780Z,99126.80
2023-12-05T06:22:10.609Z,99119.20
2023-12-05T06:23:42.446Z,99123.20
2023-12-05T06:25:14.574Z,99124.20
2023-12-05T06:26:46.333Z,99123.00
2023-12-05T06:28:18.196Z,99124.40
2023-12-05T06:29:50.147Z,99122.40
2023-12-05T06:31:22.149Z,99128.20
2023-12-05T06:32:54.240Z,99128.00
2023-12-05T06:34:26.708Z,99128.60
2023-12-05T06:35:58.635Z,99131.20
2023-12-05T06:37:31.383Z,99132.80
2023-12-05T06:39:04.292Z,99134.20
2023-12-05T06:40:36.277Z,99134.40
2023-12-05T06:42:08.045Z,99138.80
2023-12-05T06:43:39.978Z,99141.80
2023-12-05T06:45:11.819Z,99139.60
2023-12-05T06:46:43.572Z,99134.80
2023-12-05T06:48:16.753Z,99138.20
2023-12-05T06:49:49.194Z,99137.20
2023-12-05T06:51:21.554Z,99138.40
2023-12-05T06:52:58.450Z,99137.80
2023-12-05T06:54:30.567Z,99142.40
2023-12-05T06:56:02.374Z,99145.40
2023-12-05T06:57:34.232Z,99149.00
2023-12-05T06:59:05.969Z,99148.00
2023-12-05T07:00:38.561Z,99149.80
2023-12-05T07:02:10.416Z,99151.60
2023-12-05T07:03:47.815Z,99155.80
2023-12-05T07:05:25.306Z,99151.60
2023-12-05T07:06:58.077Z,99156.00
2023-12-05T07:08:30.650Z,99156.40
2023-12-05T07:10:03.463Z,99161.40
2023-12-05T07:11:35.401Z,99168.00
2023-12-05T07:13:07.305Z,99166.60
2023-12-05T07:14:39.146Z,99165.40
2023-12-05T07:16:12.386Z,99168.60
2023-12-05T07:17:44.555Z,99171.40
2023-12-05T07:19:16.440Z,99172.80
2023-12-05T07:20:48.172Z,99177.80
2023-12-05T07:22:19.930Z,99175.20
2023-12-05T07:23:58.747Z,99176.80
2023-12-05T07:25:32.616Z,99176.40
2023-12-05T07:27:04.993Z,99178.60
2023-12-05T07:28:36.757Z,99180.40
2023-12-05T07:30:09.218Z,99185.00
2023-12-05T07:31:41.160Z,99186.20
2023-12-05T07:33:12.952Z,99186.40
2023-12-05T07:34:45.204Z,99189.60
2023-12-05T07:36:17.485Z,99189.20
2023-12-05T07:37:50.481Z,99191.40
2023-12-05T07:39:22.329Z,99194.80
2023-12-05T07:40:55.235Z,99198.40
2023-12-05T07:42:27.135Z,99200.20
2023-12-05T07:43:59.276Z,99203.00
2023-12-05T07:45:31.603Z,99200.80
2023-12-05T07:47:04.354Z,99208.00
2023-12-05T07:48:36.774Z,99211.20
2023-12-05T07:50:09.494Z,99212.60
2023-12-05T07:51:41.440Z,99213.40
2023-12-05T07:53:13.308Z,99212.80
2023-12-05T07:54:45.353Z,99217.60
2023-12-05T07:56:17.306Z,99219.00
2023-12-05T07:57:51.537Z,99219.20
2023-12-05T07:59:23.317Z,99218.80
2023-12-05T08:00:55.062Z,99219.00
2023-12-05T08:02:27.353Z,99223.00
2023-12-05T08:04:02.782Z,99222.40
2023-12-05T08:05:34.778Z,99229.40
2023-12-05T08:07:09.652Z,99224.40
2023-12-05T08:08:41.545Z,99223.60
2023-12-05T08:10:13.749Z,99230.00
2023-12-05T08:11:45.570Z,99227.20
2023-12-05T08:13:17.525Z,99234.60
2023-12-05T08:14:49.454Z,99234.80
2023-12-05T08:16:21.741Z,99233.80
2023-12-05T08:17:53.669Z,99239.80
2023-12-05T08:19:26.558Z,99242.40
2023-12-05T08:20:58.989Z,99239.00
2023-12-05T08:22:31.566Z,99239.60
2023-12-05T08:24:03.661Z,99241.80
2023-12-05T08:25:35.431Z,99243.80
2023-12-05T08:27:07.254Z,99241.00
2023-12-05T08:28:39.295Z,99243.40
2023-12-05T08:30:12.565Z,99249.40
2023-12-05T08:31:44.256Z,99250.40
2023-12-05T08:33:16.512Z,99250.80
2023-12-05T08:34:48.597Z,99254.80
2023-12-05T08:36:20.726Z,99254.00
2023-12-05T08:37:52.609Z,99253.80
2023-12-05T08:39:24.385Z,99252.20
2023-12-05T08:40:56.377Z,99249.00
2023-12-05T08:42:31.367Z,99253.40
2023-12-05T08:44:03.402Z,99253.20
2023-12-05T08:45:35.423Z,99250.40
2023-12-05T08:47:10.306Z,99257.80
2023-12-05T08:48:42.642Z,99251.40
2023-12-05T08:50:14.834Z,99254.20
2023-12-05T08:51:46.848Z,99254.00
2023-12-05T08:53:18.696Z,99251.20
2023-12-05T08:54:50.625Z,99249.80
2023-12-05T08:56:22.467Z,99255.00
2023-12-05T08:57:54.296Z,99249.20
2023-12-05T08:59:26.756Z,99261.00
2023-12-05T09:00:58.530Z,99252.40
2023-12-05T09:02:30.967Z,99252.00
2023-12-05T09:04:05.395Z,99253.80
2023-12-05T09:05:37.640Z,99253.60
2023-12-05T09:07:09.591Z,99257.60
2023-12-05T09:08:41.489Z,99255.20
2023-12-05T09:10:13.329Z,99256.80
2023-12-05T09:11:46.226Z,99257.60
2023-12-05T09:13:18.120Z,99268.60
2023-12-05T09:14:50.445Z,99270.20
2023-12-05T09:16:22.696Z,99273.20
2023-12-05T09:17:54.558Z,99269.00
2023-12-05T09:19:26.344Z,99272.60
2023-12-05T09:21:01.102Z,99271.80
2023-12-05T09:22:33.140Z,99277.20
2023-12-05T09:24:09.342Z,99280.00
2023-12-05T09:25:41.219Z,99274.20
2023-12-05T09:27:13.408Z,99273.60
2023-12-05T09:28:45.947Z,99276.20
2023-12-05T09:30:18.415Z,99273.60
2023-12-05T09:31:50.233Z,99278.00
2023-12-05T09:33:21.980Z,99280.20
2023-12-05T09:34:53.774Z,99276.40
2023-12-05T09:36:25.605Z,99279.20
2023-12-05T09:37:57.569Z,99278.00
2023-12-05T09:39:30.567Z,99279.00
2023-12-05T09:41:03.808Z,99285.00
2023-12-05T09:42:36.679Z,99287.60
2023-12-05T09:44:09.828Z,99288.00
2023-12-05T09:45:46.647Z,99288.80
2023-12-05T09:47:22.932Z,99290.40
2023-12-05T09:49:02.444Z,99282.80
2023-12-05T09:50:38.115Z,99291.40
2023-12-05T09:52:10.014Z,99290.60
2023-12-05T09:53:45.225Z,99288.80
2023-12-05T09:55:18.967Z,99288.40
2023-12-05T09:56:54.726Z,99289.20
2023-12-05T09:58:27.848Z,99290.40
2023-12-05T09:59:59.587Z,99288.60
2023-12-05T10:01:35.463Z,99291.20
2023-12-05T10:03:08.311Z,99294.40
2023-12-05T10:04:46.486Z,99291.60
2023-12-05T10:06:21.485Z,99292.60
2023-12-05T10:07:54.693Z,99291.40
2023-12-05T10:09:29.165Z,99293.00
2023-12-05T10:11:05.528Z,99294.60
2023-12-05T10:12:38.848Z,99296.80
2023-12-05T10:14:10.632Z,99302.80
2023-12-05T10:15:44.483Z,99302.80
2023-12-05T10:17:16.348Z,99306.60
2023-12-05T10:18:48.360Z,99303.80
2023-12-05T10:20:20.592Z,99308.40
2023-12-05T10:21:52.862Z,99305.60
2023-12-05T10:23:24.822Z,99300.20
2023-12-05T10:24:57.142Z,99304.00
2023-12-05T10:26:29.840Z,99303.60
2023-12-05T10:28:07.921Z,99301.40
2023-12-05T10:29:42.507Z,99303.20
2023-12-05T10:31:15.772Z,99303.20
2023-12-05T10:32:47.599Z,99298.60
2023-12-05T10:34:19.452Z,99306.40
2023-12-05T10:35:51.346Z,99306.20
2023-12-05T10:37:29.620Z,99310.40
2023-12-05T10:39:01.984Z,99305.80
2023-12-05T10:40:59.826Z,99311.80
2023-12-05T10:42:31.950Z,99304.00
2023-12-05T10:44:04.087Z,99305.60
2023-12-05T10:45:36.073Z,99306.00
2023-12-05T10:47:10.298Z,99306.20
2023-12-05T10:48:42.279Z,99306.40
2023-12-05T10:50:14.214Z,99304.40
2023-12-05T10:51:46.042Z,99302.00
2023-12-05T10:53:19.280Z,99307.60
2023-12-05T10:54:57.754Z,99307.60
2023-12-05T10:56:29.680Z,99303.20
2023-12-05T10:58:03.116Z,99304.00
2023-12-05T10:59:35.971Z,99305.00
2023-12-05T11:01:12.263Z,99305.00
2023-12-05T11:02:46.248Z,99306.60
2023-12-05T11:04:18.961Z,99307.80
2023-12-05T11:05:50.915Z,99311.80
2023-12-05T11:07:22.677Z,99311.60
2023-12-05T11:08:54.424Z,99314.80
2023-12-05T11:10:27.959Z,99321.60
2023-12-05T11:12:04.701Z,99316.40
2023-12-05T11:13:39.028Z,99315.40
2023-12-05T11:15:14.169Z,99313.20
2023-12-05T11:16:50.862Z,99318.80
2023-12-05T11:18:37.892Z,99317.80
2023-12-05T11:20:52.835Z,99314.80
2023-12-05T11:23:15.281Z,99315.40
2023-12-05T11:25:43.035Z,99318.20
2023-12-05T11:27:31.086Z,99315.60
2023-12-05T11:29:38.318Z,99321.40
2023-12-05T11:31:18.953Z,99325.20
2023-12-05T11:33:16.191Z,99317.40
2023-12-05T11:35:03.924Z,99321.20
2023-12-05T11:36:47.540Z,99317.40
2023-12-05T11:38:21.944Z,99325.80
2023-12-05T11:39:54.711Z,99323.80
2023-12-05T11:41:28.923Z,99322.40
2023-12-05T11:43:14.846Z,99318.00
2023-12-05T11:44:46.815Z,99330.80
2023-12-05T11:46:19.301Z,99325.80
2023-12-05T11:47:51.965Z,99325.40
2023-12-05T11:49:46.899Z,99328.20
2023-12-05T11:51:19.200Z,99329.60
2023-12-05T11:52:51.260Z,99332.80
2023-12-05T11:54:24.824Z,99334.80
2023-12-05T11:55:58.514Z,99334.60
2023-12-05T11:57:34.263Z,99336.60
2023-12-05T11:59:14.788Z,99334.00
2023-12-05T12:00:48.371Z,99335.40
2023-12-05T12:02:42.648Z,99335.00
2023-12-05T12:04:20.946Z,99339.00
2023-12-05T12:06:03.296Z,99339.80
2023-12-05T12:07:59.531Z,99341.60
2023-12-05T12:09:40.802Z,99337.20
2023-12-05T12:11:13.451Z,99335.00
2023-12-05T12:12:47.469Z,99336.60
2023-12-05T12:14:20.630Z,99343.60
2023-12-05T12:15:52.626Z,99343.80
2023-12-05T12:17:24.561Z,99340.20
2023-12-05T12:19:04.669Z,99341.80
2023-12-05T12:20:37.294Z,99345.20
2023-12-05T12:22:10.863Z,99350.80
2023-12-05T12:23:42.604Z,99344.40
2023-12-05T12:25:15.006Z,99346.20
2023-12-05T12:26:55.377Z,99347.20
2023-12-05T12:28:29.981Z,99347.60
2023-12-05T12:30:02.119Z,99348.80
2023-12-05T12:31:34.078Z,99348.60
2023-12-05T12:33:06.974Z,99345.60
2023-12-05T12:34:47.053Z,99346.00
2023-12-05T12:36:20.176Z,99346.20
2023-12-05T12:37:56.215Z,99346.20
2023-12-05T12:39:28.488Z,99350.40
2023-12-05T12:41:01.300Z,99352.40
2023-12-05T12:42:34.163Z,99358.80
2023-12-05T12:44:06.646Z,99356.00
2023-12-05T12:45:38.825Z,99357.40
2023-12-05T12:47:14.615Z,99357.20
2023-12-05T12:48:47.306Z,99364.20
2023-12-05T12:50:20.779Z,99363.60
2023-12-05T12:51:55.802Z,99363.20
2023-12-05T12:53:27.784Z,99364.20
2023-12-05T12:54:59.668Z,99364.60
2023-12-05T12:56:34.513Z,99361.20
2023-12-05T12:58:06.926Z,99363.80
2023-12-05T12:59:42.275Z,99365.60
2023-12-05T13:01:14.861Z,99369.00
2023-12-05T13:02:51.975Z,99369.40
2023-12-05T13:04:29.749Z,99372.80
2023-12-05T13:06:02.222Z,99371.80
2023-12-05T13:07:34.398Z,99376.20
2023-12-05T13:09:24.401Z,99377.80
2023-12-05T13:10:56.834Z,99375.20
2023-12-05T13:12:28.862Z,99371.40
2023-12-05T13:14:00.621Z,99375.00
2023-12-05T13:15:32.758Z,99377.80
2023-12-05T13:17:11.197Z,99373.80
2023-12-05T13:18:46.654Z,99374.40
2023-12-05T13:20:18.910Z,99374.40
2023-12-05T13:21:51.130Z,99372.60
2023-12-05T13:23:24.376Z,99374.80
2023-12-05T13:24:56.283Z,99377.40
2023-12-05T13:26:28.213Z,99375.40
2023-12-05T13:28:00.248Z,99376.80
2023-12-05T13:29:32.774Z,99376.20
2023-12-05T13:31:05.003Z,99374.60
2023-12-05T13:32:36.766Z,99376.80
2023-12-05T13:34:09.143Z,99375.60
2023-12-05T13:35:42.582Z,99377.80
2023-12-05T13:37:14.630Z,99382.80
2023-12-05T13:38:46.416Z,99379.20
2023-12-05T13:40:18.335Z,99380.80
2023-12-05T13:41:50.150Z,99383.40
2023-12-05T13:43:22.057Z,99382.20
2023-12-05T13:44:56.362Z,99380.80
2023-12-05T13:46:29.961Z,99381.00
2023-12-05T13:48:01.997Z,99382.20
2023-12-05T13:49:33.938Z,99384.40
2023-12-05T13:51:09.523Z,99386.40
2023-12-05T13:52:41.337Z,99388.40
2023-12-05T13:54:13.201Z,99389.40
2023-12-05T13:55:45.288Z,99394.40
2023-12-05T13:57:17.181Z,99394.80
2023-12-05T13:58:49.517Z,99395.80
2023-12-05T14:00:21.743Z,99393.40
2023-12-05T14:01:53.559Z,99398.20
2023-12-05T14:03:25.710Z,99397.00
2023-12-05T14:04:57.767Z,99398.60
2023-12-05T14:06:29.996Z,99398.40
2023-12-05T14:08:01.799Z,99401.20
2023-12-05T14:09:33.575Z,99398.20
2023-12-05T14:11:06.504Z,99403.80
2023-12-05T14:12:38.313Z,99404.20
2023-12-05T14:14:10.092Z,99405.40
2023-12-05T14:15:42.130Z,99407.20
2023-12-05T14:17:15.538Z,99408.20
2023-12-05T14:18:47.586Z,99411.80
2023-12-05T14:20:20.467Z,99408.60
2023-12-05T14:21:52.499Z,99409.60
2023-12-05T14:23:24.314Z,99415.20
2023-12-05T14:24:56.133Z,99415.80
2023-12-05T14:26:28.079Z,99419.40
2023-12-05T14:27:59.897Z,99418.60
2023-12-05T14:29:32.758Z,99418.40
2023-12-05T14:31:05.021Z,99418.40
2023-12-05T14:32:36.884Z,99421.40
2023-12-05T14:34:09.994Z,99422.40
2023-12-05T14:35:42.059Z,99425.60
2023-12-05T14:37:14.214Z,99426.40
2023-12-05T14:38:46.237Z,99428.40
2023-12-05T14:40:18.438Z,99428.80
2023-12-05T14:41:51.197Z,99430.20
2023-12-05T14:43:24.066Z,99430.20
2023-12-05T14:44:55.850Z,99436.60
2023-12-05T14:46:27.627Z,99445.20
2023-12-05T14:47:59.455Z,99451.20
2023-12-05T14:49:31.905Z,99456.00
2023-12-05T14:51:04.070Z,99465.00
2023-12-05T14:52:36.163Z,99462.20
2023-12-05T14:54:08.065Z,99465.40
2023-12-05T14:55:41.065Z,99470.80
2023-12-05T14:57:13.056Z,99471.40
2023-12-05T14:58:46.301Z,99478.00
2023-12-05T15:00:20.333Z,99478.60
2023-12-05T15:01:52.461Z,99487.60
2023-12-05T15:03:24.509Z,99487.80
2023-12-05T15:04:57.532Z,99489.80
2023-12-05T15:06:29.500Z,99495.20
2023-12-05T15:08:01.360Z,99495.40
2023-12-05T15:09:34.609Z,99504.00
2023-12-05T15:11:07.293Z,99503.40
2023-12-05T15:12:41.028Z,99508.00
2023-12-05T15:14:12.908Z,99510.00
2023-12-05T15:15:48.929Z,99509.00
2023-12-05T15:17:21.487Z,99514.60
2023-12-05T15:18:54.587Z,99512.80
2023-12-05T15:20:26.762Z,99521.00
2023-12-05T15:22:01.675Z,99519.40
2023-12-05T15:23:34.778Z,99521.80
2023-12-05T15:25:07.507Z,99522.60
2023-12-05T15:26:39.875Z,99528.20
2023-12-05T15:28:12.633Z,99529.20
2023-12-05T15:29:44.571Z,99532.40
2023-12-05T15:31:16.942Z,99534.00
2023-12-05T15:32:52.623Z,99532.80
2023-12-05T15:34:31.756Z,99537.60
2023-12-05T15:36:12.780Z,99544.60
2023-12-05T15:37:45.497Z,99545.80
2023-12-05T15:39:17.365Z,99545.20
2023-12-05T15:40:49.486Z,99553.00
2023-12-05T15:42:21.372Z,99551.80
2023-12-05T15:43:53.167Z,99559.80
2023-12-05T15:45:25.319Z,99562.60
2023-12-05T15:46:58.228Z,99567.80
2023-12-05T15:48:43.787Z,99572.40
2023-12-05T15:50:20.145Z,99569.60
2023-12-05T15:51:52.363Z,99575.00
2023-12-05T15:53:24.177Z,99578.40
2023-12-05T15:54:56.040Z,99578.80
2023-12-05T15:56:30.358Z,99582.40
2023-12-05T15:58:03.002Z,99587.60
2023-12-05T15:59:35.193Z,99589.60
2023-12-05T16:01:07.684Z,99594.60
2023-12-05T16:02:41.218Z,99591.00
2023-12-05T16:04:13.098Z,99596.00
2023-12-05T16:05:45.597Z,99599.80
2023-12-05T16:07:17.834Z,99599.80
2023-12-05T16:08:49.997Z,99603.60
2023-12-05T16:10:21.946Z,99606.60
2023-12-05T16:12:00.633Z,99605.60
2023-12-05T16:13:46.648Z,99607.60
2023-12-05T16:15:24.950Z,99610.60
2023-12-05T16:16:56.825Z,99618.60
2023-12-05T16:18:28.641Z,99622.20
2023-12-05T16:20:00.682Z,99625.20
2023-12-05T16:21:33.508Z,99624.00
2023-12-05T16:23:05.757Z,99625.60
2023-12-05T16:24:38.428Z,99630.20
2023-12-05T16:26:10.389Z,99627.40
2023-12-05T16:27:42.785Z,99629.80
2023-12-05T16:29:14.815Z,99633.00
2023-12-05T16:30:46.900Z,99637.80
2023-12-05T16:32:19.134Z,99642.00
2023-12-05T16:33:51.251Z,99642.20
2023-12-05T16:35:23.120Z,99649.00
2023-12-05T16:36:55.064Z,99648.60
2023-12-05T16:38:26.943Z,99645.80
2023-12-05T16:39:58.958Z,99647.20
2023-12-05T16:41:35.360Z,99653.80
2023-12-05T16:43:08.413Z,99651.00
2023-12-05T16:44:47.840Z,99651.80
2023-12-05T16:46:20.453Z,99654.60
2023-12-05T16:47:57.208Z,99658.60
2023-12-05T16:49:29.340Z,99660.80
2023-12-05T16:51:01.393Z,99661.40
2023-12-05T16:52:33.315Z,99662.40
2023-12-05T16:54:05.785Z,99665.20
2023-12-05T16:55:37.721Z,99671.80
2023-12-05T16:57:10.610Z,99673.20
2023-12-05T16:58:42.772Z,99674.00
2023-12-05T17:00:15.594Z,99677.20
2023-12-05T17:01:51.329Z,99674.20
2023-12-05T17:03:23.203Z,99681.60
2023-12-05T17:04:55.678Z,99680.00
2023-12-05T17:06:27.977Z,99682.20
2023-12-05T17:08:00.081Z,99682.80
2023-12-05T17:09:32.856Z,99681.00
2023-12-05T17:11:06.064Z,99685.00
2023-12-05T17:12:38.055Z,99687.20
2023-12-05T17:14:09.897Z,99688.00
2023-12-05T17:15:41.790Z,99691.80
2023-12-05T17:17:14.276Z,99688.00
2023-12-05T17:18:47.290Z,99691.20
2023-12-05T17:20:19.487Z,99694.40
2023-12-05T17:21:51.575Z,99692.20
2023-12-05T17:23:24.969Z,99703.00
2023-12-05T17:24:57.080Z,99701.40
2023-12-05T17:26:29.530Z,99702.80
2023-12-05T17:28:02.445Z,99708.00
2023-12-05T17:29:34.557Z,99709.60
2023-12-05T17:31:07.802Z,99713.80
2023-12-05T17:32:40.690Z,99720.20
2023-12-05T17:34:12.632Z,99716.60
2023-12-05T17:35:44.815Z,99720.00
2023-12-05T17:37:17.623Z,99721.00
2023-12-05T17:38:49.748Z,99723.20
2023-12-05T17:40:21.673Z,99727.20
2023-12-05T17:41:54.895Z,99727.60
2023-12-05T17:43:27.631Z,99729.80
2023-12-05T17:44:59.516Z,99732.60
2023-12-05T17:46:31.380Z,99729.20
2023-12-05T17:48:03.290Z,99735.00
2023-12-05T17:49:35.305Z,99738.60
2023-12-05T17:51:09.718Z,99739.20
2023-12-05T17:52:44.590Z,99743.00
2023-12-05T17:54:17.465Z,99740.80
2023-12-05T17:55:49.487Z,99742.60
2023-12-05T17:57:23.205Z,99745.40
2023-12-05T17:58:55.281Z,99748.80
2023-12-05T18:00:27.256Z,99753.00
2023-12-05T18:01:59.253Z,99759.20
2023-12-05T18:03:31.362Z,99762.40
2023-12-05T18:05:04.519Z,99757.60
2023-12-05T18:06:36.414Z,99758.00
2023-12-05T18:08:09.306Z,99759.20
2023-12-05T18:09:41.596Z,99762.40
2023-12-05T18:11:13.449Z,99767.20
2023-12-05T18:12:45.500Z,99767.60
2023-12-05T18:14:18.067Z,99779.40
2023-12-05T18:15:50.122Z,99778.60
2023-12-05T18:17:22.319Z,99779.40
2023-12-05T18:18:54.821Z,99778.20
2023-12-05T18:20:26.992Z,99783.40